Time;durP1;ratioP1;P1;durP2;ratioP2;P2;SDS_P1;SDS_P2;PMS_P1;PMS_P2;Temp;Humidity;BMP_temperature;BMP_pressure;BME280_temperature;BME280_humidity;BME280_pressure;Samples;Min_cycle;Max_cycle;Signal;HPM_P1;HPM_P2
2023/06/10 00:00:14;;;;;;;6.00;4.50;;;15.50;1.00;;;;;;5012898;28;20491;-67
2023/06/10 00:02:41;;;;;;;7.85;5.00;;;15.50;1.00;;;;;;5013935;28;20037;-67
2023/06/10 00:05:10;;;;;;;9.55;5.15;;;15.50;1.00;;;;;;4994669;28;20026;-67
2023/06/10 00:07:40;;;;;;;10.43;5.20;;;15.60;1.00;;;;;;5011186;28;20140;-68
2023/06/10 00:10:07;;;;;;;9.90;5.05;;;15.60;1.00;;;;;;4980808;28;20759;-67
2023/06/10 00:12:36;;;;;;;7.35;4.60;;;15.50;1.00;;;;;;4995792;28;20045;-68
2023/06/10 00:15:06;;;;;;;7.72;4.85;;;15.50;1.00;;;;;;4980194;28;20056;-67
2023/06/10 00:17:32;;;;;;;10.82;5.15;;;15.40;1.00;;;;;;4995693;28;20049;-68
2023/06/10 00:19:58;;;;;;;7.47;4.72;;;15.30;1.00;;;;;;4996226;28;20280;-67
2023/06/10 00:22:29;;;;;;;9.13;4.65;;;15.20;1.00;;;;;;4995031;28;20037;-68
2023/06/10 00:24:55;;;;;;;8.07;4.13;;;15.20;1.00;;;;;;4994178;28;20676;-67
2023/06/10 00:27:21;;;;;;;8.75;4.68;;;15.10;1.00;;;;;;4995124;28;20284;-67
2023/06/10 00:29:47;;;;;;;10.48;4.85;;;15.10;99.90;;;;;;5012307;28;20045;-68
2023/06/10 00:32:12;;;;;;;6.95;4.15;;;15.10;99.90;;;;;;4995143;28;20681;-68
2023/06/10 00:34:38;;;;;;;8.85;4.07;;;15.10;99.90;;;;;;5029321;28;20037;-67
2023/06/10 00:37:04;;;;;;;7.63;4.10;;;15.10;99.90;;;;;;4973470;28;20116;-68
2023/06/10 00:39:29;;;;;;;6.57;3.97;;;15.10;99.90;;;;;;4978913;28;20532;-68
2023/06/10 00:41:55;;;;;;;5.72;3.50;;;15.20;99.90;;;;;;4994110;28;20625;-68
2023/06/10 00:44:21;;;;;;;8.68;4.10;;;15.10;99.90;;;;;;4994641;28;20532;-67
2023/06/10 00:46:47;;;;;;;6.32;3.70;;;15.00;99.90;;;;;;4994688;28;20298;-67
2023/06/10 00:49:14;;;;;;;6.95;3.95;;;15.00;99.90;;;;;;4993528;28;20045;-67
2023/06/10 00:51:39;;;;;;;7.40;4.07;;;15.00;99.90;;;;;;5011996;28;20371;-67
2023/06/10 00:54:06;;;;;;;7.60;3.72;;;15.00;99.90;;;;;;5026980;28;20624;-67
2023/06/10 00:56:34;;;;;;;6.90;3.65;;;14.90;99.90;;;;;;4980919;28;20355;-68
2023/06/10 00:59:00;;;;;;;7.15;3.60;;;15.00;99.90;;;;;;4993819;28;20100;-67
2023/06/10 01:01:26;;;;;;;6.45;3.55;;;15.00;99.90;;;;;;4995038;28;20570;-68
2023/06/10 01:03:52;;;;;;;8.82;3.53;;;15.00;99.90;;;;;;4993833;28;20045;-67
2023/06/10 01:06:37;;;;;;;5.70;3.42;;;15.00;99.90;;;;;;4993503;28;20608;-68
2023/06/10 01:09:32;;;;;;;7.05;3.80;;;15.00;99.90;;;;;;4996791;28;20438;-68
2023/06/10 01:12:13;;;;;;;7.20;4.15;;;15.00;99.90;;;;;;4982568;28;20045;-68
2023/06/10 01:14:44;;;;;;;7.80;3.53;;;14.90;99.90;;;;;;5027036;28;20582;-67
2023/06/10 01:17:11;;;;;;;8.52;4.05;;;14.90;99.90;;;;;;5027064;28;20120;-67
2023/06/10 01:19:37;;;;;;;8.57;3.90;;;14.90;1.00;;;;;;4987131;28;20831;-68
2023/06/10 01:22:03;;;;;;;9.52;4.40;;;14.90;1.00;;;;;;5010710;28;20092;-67
2023/06/10 01:24:32;;;;;;;8.10;4.72;;;14.90;1.00;;;;;;4995136;28;21105;-68
2023/06/10 01:27:01;;;;;;;11.57;4.93;;;14.80;1.00;;;;;;4994411;28;20244;-68
2023/06/10 01:29:52;;;;;;;9.23;4.45;;;14.70;1.00;;;;;;5015064;28;20166;-68
2023/06/10 01:32:31;;;;;;;8.80;4.57;;;14.70;1.00;;;;;;4978662;28;20896;-68
2023/06/10 01:34:59;;;;;;;7.28;4.82;;;14.60;1.00;;;;;;5004666;28;20052;-67
2023/06/10 01:37:26;;;;;;;9.75;5.00;;;14.50;1.00;;;;;;5012417;28;20123;-67
2023/06/10 01:39:56;;;;;;;8.95;5.32;;;14.50;1.00;;;;;;4979418;28;20041;-68
2023/06/10 01:42:24;;;;;;;9.57;5.32;;;14.40;1.00;;;;;;4993938;28;20422;-67
2023/06/10 01:44:50;;;;;;;7.20;4.45;;;14.30;1.00;;;;;;4995353;28;20255;-68
2023/06/10 01:47:16;;;;;;;10.77;5.13;;;14.20;1.00;;;;;;4994191;28;20033;-68
2023/06/10 01:49:42;;;;;;;10.00;5.40;;;14.20;70.00;;;;;;4995771;28;20588;-68
2023/06/10 01:52:08;;;;;;;12.63;5.43;;;14.20;72.10;;;;;;4995237;28;20049;-68
2023/06/10 01:54:34;;;;;;;9.77;5.18;;;14.20;95.50;;;;;;4987996;28;21784;-68
2023/06/10 01:57:00;;;;;;;7.90;5.20;;;14.20;99.90;;;;;;4994607;28;20052;-68
2023/06/10 01:59:26;;;;;;;12.77;5.78;;;14.10;99.90;;;;;;5011619;28;20565;-67
2023/06/10 02:01:52;;;;;;;9.20;5.47;;;14.10;99.90;;;;;;5026188;28;20037;-67
2023/06/10 02:04:18;;;;;;;9.05;5.45;;;14.10;99.90;;;;;;5029959;28;20457;-68
2023/06/10 02:06:45;;;;;;;9.57;5.80;;;14.00;99.90;;;;;;5016337;28;20041;-68
2023/06/10 02:09:10;;;;;;;11.02;6.47;;;14.00;99.90;;;;;;5014000;28;20050;-68
2023/06/10 02:11:36;;;;;;;10.57;5.72;;;14.00;99.90;;;;;;5030304;28;20411;-68
2023/06/10 02:14:02;;;;;;;13.55;6.40;;;14.00;99.90;;;;;;4983117;28;20049;-67
2023/06/10 02:16:27;;;;;;;13.18;5.90;;;14.00;99.90;;;;;;4998212;28;20063;-67
2023/06/10 02:18:54;;;;;;;9.68;5.53;;;13.90;99.90;;;;;;4997605;28;20037;-67
2023/06/10 02:21:20;;;;;;;11.30;6.22;;;13.90;99.90;;;;;;4998414;28;20255;-68
2023/06/10 02:23:46;;;;;;;9.38;5.85;;;13.90;99.90;;;;;;5030843;28;20033;-68
2023/06/10 02:26:11;;;;;;;11.20;6.57;;;13.90;99.90;;;;;;5014416;28;20068;-68
2023/06/10 02:28:37;;;;;;;9.73;5.30;;;13.90;99.90;;;;;;4981284;28;20562;-68
2023/06/10 02:31:03;;;;;;;10.57;6.47;;;13.80;99.90;;;;;;4997032;28;20602;-67
2023/06/10 02:33:28;;;;;;;11.52;6.63;;;13.80;99.90;;;;;;4997125;28;20553;-68
2023/06/10 02:35:55;;;;;;;12.18;6.90;;;13.80;99.90;;;;;;4997739;28;20390;-68
2023/06/10 02:38:21;;;;;;;12.98;6.32;;;13.80;99.90;;;;;;5030381;28;20423;-68
2023/06/10 02:40:47;;;;;;;14.65;7.60;;;13.80;99.90;;;;;;4995621;28;20077;-67
2023/06/10 02:43:13;;;;;;;15.38;7.65;;;13.70;99.90;;;;;;5013762;28;20068;-67
2023/06/10 02:45:38;;;;;;;12.80;7.07;;;13.70;99.90;;;;;;4980381;28;20163;-68
2023/06/10 02:48:04;;;;;;;15.82;8.00;;;13.70;99.90;;;;;;5013233;28;20147;-67
2023/06/10 02:50:30;;;;;;;15.50;7.85;;;13.60;99.90;;;;;;4996894;28;20049;-67
2023/06/10 02:52:55;;;;;;;12.43;8.07;;;13.60;99.90;;;;;;5027998;28;20040;-67
2023/06/10 02:55:21;;;;;;;13.27;7.32;;;13.50;99.90;;;;;;4980950;28;20033;-67
2023/06/10 02:57:47;;;;;;;17.38;8.45;;;13.50;99.90;;;;;;4996711;28;20056;-68
2023/06/10 03:00:14;;;;;;;17.83;9.25;;;13.50;99.90;;;;;;5014057;28;20535;-68
2023/06/10 03:02:40;;;;;;;15.38;8.98;;;13.50;99.90;;;;;;4996912;28;20077;-67
2023/06/10 03:05:09;;;;;;;17.60;8.65;;;13.50;99.90;;;;;;5015126;28;20042;-67
2023/06/10 03:07:36;;;;;;;14.30;8.20;;;13.40;99.90;;;;;;4994650;28;20741;-67
2023/06/10 03:10:02;;;;;;;13.05;7.75;;;13.40;99.90;;;;;;4997767;28;20400;-68
2023/06/10 03:12:27;;;;;;;17.33;8.95;;;13.40;99.90;;;;;;4995302;28;20067;-67
2023/06/10 03:14:53;;;;;;;13.02;8.57;;;13.40;1.00;;;;;;4997550;28;20107;-68
2023/06/10 03:17:19;;;;;;;15.88;8.13;;;13.40;1.00;;;;;;4980153;28;20524;-67
2023/06/10 03:19:45;;;;;;;17.50;8.27;;;13.40;1.00;;;;;;4997496;28;20049;-68
2023/06/10 03:22:14;;;;;;;14.80;8.90;;;13.40;1.00;;;;;;4995499;28;20037;-67
2023/06/10 03:24:43;;;;;;;19.75;9.00;;;13.40;1.00;;;;;;4963795;28;20037;-67
2023/06/10 03:27:13;;;;;;;19.35;9.32;;;13.40;1.00;;;;;;5013503;28;20671;-66
2023/06/10 03:29:39;;;;;;;15.82;9.70;;;13.40;99.90;;;;;;4997134;28;20041;-66
2023/06/10 03:32:06;;;;;;;17.92;8.85;;;13.30;68.60;;;;;;5007082;28;20075;-66
2023/06/10 03:34:32;;;;;;;15.88;9.45;;;13.30;91.70;;;;;;4981182;28;20048;-67
2023/06/10 03:36:58;;;;;;;16.42;9.27;;;13.30;99.90;;;;;;4998128;28;20688;-67
2023/06/10 03:39:24;;;;;;;16.00;8.60;;;13.30;99.90;;;;;;4996446;28;20695;-67
2023/06/10 03:41:52;;;;;;;18.50;10.15;;;13.30;99.90;;;;;;5015115;28;20166;-66
2023/06/10 03:44:18;;;;;;;16.95;9.00;;;13.30;99.90;;;;;;4980147;28;20481;-67
2023/06/10 03:46:44;;;;;;;16.48;9.05;;;13.30;99.90;;;;;;4982439;28;20197;-67
2023/06/10 03:49:11;;;;;;;18.15;9.32;;;13.30;99.90;;;;;;4994618;28;20045;-67
2023/06/10 03:51:37;;;;;;;13.80;7.97;;;13.30;99.90;;;;;;4995870;28;20045;-67
2023/06/10 03:54:03;;;;;;;16.20;8.68;;;13.30;99.90;;;;;;5011584;28;20037;-67
2023/06/10 03:56:28;;;;;;;16.38;8.20;;;13.40;99.90;;;;;;4981032;28;20137;-67
2023/06/10 03:58:55;;;;;;;15.77;8.57;;;13.50;99.90;;;;;;4994962;28;20049;-67
2023/06/10 04:01:21;;;;;;;13.35;8.43;;;13.40;99.90;;;;;;4978726;28;20037;-67
2023/06/10 04:03:48;;;;;;;16.65;9.52;;;13.40;99.90;;;;;;4997881;28;20079;-67
2023/06/10 04:06:15;;;;;;;13.40;7.75;;;13.40;99.90;;;;;;5010998;28;20112;-67
2023/06/10 04:08:42;;;;;;;14.55;7.70;;;13.40;99.90;;;;;;5013618;28;20446;-67
2023/06/10 04:11:08;;;;;;;18.15;8.55;;;13.40;99.90;;;;;;4995506;28;20042;-68
2023/06/10 04:13:34;;;;;;;13.38;7.60;;;13.40;99.90;;;;;;5031109;28;20041;-67
2023/06/10 04:16:00;;;;;;;15.65;8.25;;;13.50;99.90;;;;;;4995498;28;20038;-67
2023/06/10 04:18:26;;;;;;;18.70;9.10;;;13.50;99.90;;;;;;4979012;28;20060;-67
2023/06/10 04:20:51;;;;;;;15.90;9.52;;;13.50;99.90;;;;;;5027457;28;20483;-67
2023/06/10 04:23:18;;;;;;;17.88;8.75;;;13.50;99.90;;;;;;5026471;28;20037;-67
2023/06/10 04:25:43;;;;;;;19.88;9.43;;;13.50;99.90;;;;;;4996035;28;20866;-67
2023/06/10 04:28:09;;;;;;;22.00;9.18;;;13.60;99.90;;;;;;4994670;28;20554;-67
2023/06/10 04:30:35;;;;;;;13.98;7.38;;;13.60;99.90;;;;;;4981982;28;20045;-67
2023/06/10 04:33:01;;;;;;;17.45;8.45;;;13.60;99.90;;;;;;5027501;28;20041;-66
2023/06/10 04:35:27;;;;;;;16.55;9.18;;;13.70;99.90;;;;;;5027823;28;20049;-67
2023/06/10 04:37:53;;;;;;;17.50;8.80;;;13.80;99.90;;;;;;5027887;28;20368;-67
2023/06/10 04:40:20;;;;;;;16.17;8.82;;;13.80;99.90;;;;;;4979611;28;20099;-67
2023/06/10 04:42:47;;;;;;;15.80;7.70;;;13.90;99.90;;;;;;5027969;28;20166;-67
2023/06/10 04:45:13;;;;;;;15.70;8.52;;;13.90;99.90;;;;;;5027786;28;20383;-67
2023/06/10 04:47:38;;;;;;;18.27;8.40;;;13.90;99.90;;;;;;5012459;28;20466;-66
2023/06/10 04:50:05;;;;;;;16.70;8.10;;;13.90;99.90;;;;;;4996504;28;20122;-65
2023/06/10 04:52:31;;;;;;;17.80;8.75;;;13.90;99.90;;;;;;4994261;28;20060;-65
2023/06/10 04:54:58;;;;;;;16.00;8.90;;;13.80;99.90;;;;;;4993839;28;20034;-65
2023/06/10 04:57:23;;;;;;;20.60;8.75;;;13.80;99.90;;;;;;4994561;28;20540;-66
2023/06/10 04:59:49;;;;;;;15.52;8.55;;;13.80;99.90;;;;;;4995840;28;20080;-66
2023/06/10 05:02:15;;;;;;;19.67;8.88;;;13.80;99.90;;;;;;4994559;28;20044;-66
2023/06/10 05:04:41;;;;;;;16.17;8.23;;;13.70;99.90;;;;;;5027942;28;20049;-66
2023/06/10 05:07:06;;;;;;;17.35;8.80;;;13.80;99.90;;;;;;4995686;28;20200;-66
2023/06/10 05:09:32;;;;;;;18.33;8.05;;;13.90;99.90;;;;;;5030257;28;20048;-66
2023/06/10 05:11:58;;;;;;;15.77;8.30;;;13.80;99.90;;;;;;5011514;28;20108;-65
2023/06/10 05:14:24;;;;;;;17.15;8.73;;;13.80;99.90;;;;;;5010985;28;20037;-66
2023/06/10 05:16:50;;;;;;;15.85;8.65;;;13.90;99.90;;;;;;5027914;28;20203;-66
2023/06/10 05:19:19;;;;;;;15.20;7.72;;;14.00;99.90;;;;;;4977969;28;20047;-66
2023/06/10 05:21:45;;;;;;;15.63;7.57;;;14.10;99.90;;;;;;4993966;28;20473;-66
2023/06/10 05:24:11;;;;;;;17.83;7.70;;;14.10;99.90;;;;;;4994189;28;20037;-66
2023/06/10 05:26:37;;;;;;;14.45;7.78;;;14.20;99.90;;;;;;4996628;28;20045;-66
2023/06/10 05:29:04;;;;;;;15.93;7.38;;;14.40;99.90;;;;;;5009851;28;20104;-65
2023/06/10 05:31:30;;;;;;;8.75;5.55;;;14.80;99.90;;;;;;4994059;28;20188;-66
2023/06/10 05:33:55;;;;;;;15.43;7.05;;;15.10;47.40;;;;;;5028455;28;21365;-66
2023/06/10 05:36:21;;;;;;;11.00;5.97;;;15.40;1.00;;;;;;5029486;28;20987;-65
2023/06/10 05:38:47;;;;;;;11.32;6.05;;;15.50;1.00;;;;;;5031483;28;20034;-65
2023/06/10 05:41:13;;;;;;;10.82;5.75;;;15.80;99.90;;;;;;4984070;28;20330;-66
2023/06/10 05:43:38;;;;;;;12.82;6.20;;;15.90;99.90;;;;;;5016535;28;20072;-66
2023/06/10 05:46:04;;;;;;;14.13;6.00;;;16.10;99.90;;;;;;4992499;28;20623;-65
2023/06/10 05:48:30;;;;;;;10.00;4.72;;;16.30;99.90;;;;;;5030775;28;20499;-66
2023/06/10 05:50:56;;;;;;;12.77;5.65;;;16.50;99.90;;;;;;5015367;28;20652;-66
2023/06/10 05:53:22;;;;;;;11.93;5.18;;;16.40;95.50;;;;;;4999093;28;20110;-65
2023/06/10 05:55:48;;;;;;;11.90;4.47;;;16.40;36.80;;;;;;4982466;28;20226;-66
2023/06/10 05:58:14;;;;;;;7.18;4.60;;;16.50;74.80;;;;;;4997535;28;20488;-66
2023/06/10 06:00:40;;;;;;;10.25;5.25;;;16.50;1.00;;;;;;5013610;28;20112;-65
2023/06/10 06:03:08;;;;;;;8.43;4.70;;;16.60;14.30;;;;;;4997463;28;20042;-66
2023/06/10 06:05:35;;;;;;;11.20;4.75;;;16.70;1.00;;;;;;5030284;28;20129;-66
2023/06/10 06:08:10;;;;;;;9.93;5.00;;;16.80;1.00;;;;;;4998716;28;20054;-66
2023/06/10 06:10:36;;;;;;;8.10;4.22;;;16.90;1.00;;;;;;5014840;28;20048;-65
2023/06/10 06:13:02;;;;;;;7.93;3.70;;;16.90;1.00;;;;;;4999052;28;20041;-65
2023/06/10 06:15:28;;;;;;;9.65;4.10;;;17.00;99.90;;;;;;4998925;28;20041;-65
2023/06/10 06:17:53;;;;;;;10.00;4.68;;;17.00;1.00;;;;;;4980632;28;20522;-66
2023/06/10 06:20:20;;;;;;;7.80;4.50;;;17.10;1.00;;;;;;4999556;28;20079;-65
2023/06/10 06:22:46;;;;;;;8.05;4.07;;;17.30;1.00;;;;;;5049932;28;20041;-65
2023/06/10 06:25:12;;;;;;;9.27;3.78;;;17.40;99.90;;;;;;5022206;28;20053;-66
2023/06/10 06:27:38;;;;;;;8.13;4.25;;;17.40;99.90;;;;;;5013598;28;20037;-65
2023/06/10 06:30:05;;;;;;;8.95;4.00;;;17.40;99.90;;;;;;4996930;28;20056;-66
2023/06/10 06:32:31;;;;;;;11.95;4.93;;;17.40;99.90;;;;;;4981156;28;20369;-65
2023/06/10 06:34:57;;;;;;;10.10;4.07;;;17.50;99.90;;;;;;4997226;28;20687;-65
2023/06/10 06:37:26;;;;;;;8.80;3.88;;;17.60;99.90;;;;;;4998563;28;20234;-65
2023/06/10 06:39:53;;;;;;;8.73;4.00;;;17.80;99.90;;;;;;4997341;28;20049;-66
2023/06/10 06:42:20;;;;;;;6.97;4.22;;;17.80;99.90;;;;;;4997403;28;20045;-66
2023/06/10 06:44:47;;;;;;;7.45;3.88;;;17.80;99.90;;;;;;4996938;28;20156;-65
2023/06/10 06:47:13;;;;;;;8.88;4.53;;;17.90;99.90;;;;;;5013651;28;20037;-65
2023/06/10 06:49:38;;;;;;;7.50;3.42;;;17.90;99.90;;;;;;4998529;28;20755;-66
2023/06/10 06:52:05;;;;;;;8.13;4.05;;;18.10;99.90;;;;;;5012562;28;20184;-67
2023/06/10 06:54:31;;;;;;;8.75;4.18;;;18.20;99.90;;;;;;4998970;28;20045;-67
2023/06/10 06:56:57;;;;;;;10.07;3.80;;;18.30;99.90;;;;;;4999688;28;20049;-67
2023/06/10 06:59:23;;;;;;;8.13;3.75;;;18.30;99.90;;;;;;4982155;28;20672;-66
2023/06/10 07:01:49;;;;;;;7.93;3.97;;;18.40;99.90;;;;;;4998786;28;20547;-66
2023/06/10 07:04:15;;;;;;;9.57;3.70;;;18.50;99.90;;;;;;4998472;28;20038;-66
2023/06/10 07:06:41;;;;;;;8.00;4.00;;;18.60;99.90;;;;;;5000011;28;20048;-66
2023/06/10 07:09:08;;;;;;;9.15;3.85;;;18.80;99.90;;;;;;5033123;28;20041;-66
2023/06/10 07:11:34;;;;;;;10.75;3.78;;;18.90;99.90;;;;;;4998454;28;20377;-66
2023/06/10 07:14:00;;;;;;;8.38;3.58;;;19.10;99.90;;;;;;5031164;28;20297;-66
2023/06/10 07:16:26;;;;;;;7.90;4.00;;;19.40;99.90;;;;;;5014562;28;20319;-67
2023/06/10 07:18:53;;;;;;;6.88;3.67;;;19.50;99.90;;;;;;5030543;28;20037;-67
2023/06/10 07:21:19;;;;;;;7.43;3.55;;;19.60;99.90;;;;;;5002357;28;20045;-67
2023/06/10 07:23:45;;;;;;;7.18;3.38;;;19.60;99.90;;;;;;5002351;28;20667;-66
2023/06/10 07:26:13;;;;;;;9.35;3.25;;;19.60;99.90;;;;;;5000815;28;20570;-67
2023/06/10 07:28:39;;;;;;;8.88;3.70;;;19.70;99.90;;;;;;4983145;28;20037;-66
2023/06/10 07:31:06;;;;;;;8.40;3.40;;;19.90;99.90;;;;;;4995230;28;20051;-66
2023/06/10 07:33:32;;;;;;;8.07;3.40;;;19.90;99.90;;;;;;4998596;28;20045;-67
2023/06/10 07:35:58;;;;;;;8.57;3.35;;;20.00;99.90;;;;;;4997895;28;20079;-67
2023/06/10 07:38:25;;;;;;;9.15;3.92;;;20.10;99.90;;;;;;5018423;28;20458;-67
2023/06/10 07:40:54;;;;;;;7.93;3.00;;;20.20;99.90;;;;;;5003049;28;20495;-67
2023/06/10 07:43:33;;;;;;;7.22;2.95;;;20.40;99.90;;;;;;5007451;28;20092;-66
2023/06/10 07:46:05;;;;;;;9.20;3.33;;;20.60;99.90;;;;;;5035133;28;20044;-66
2023/06/10 07:48:31;;;;;;;7.40;2.80;;;20.70;99.90;;;;;;5000199;28;20053;-66
2023/06/10 07:50:57;;;;;;;8.05;3.17;;;20.80;99.90;;;;;;5014813;28;20490;-66
2023/06/10 07:53:23;;;;;;;6.60;2.78;;;21.00;99.90;;;;;;5047844;28;20049;-66
2023/06/10 07:55:49;;;;;;;7.05;2.90;;;21.10;99.90;;;;;;4997708;28;20759;-65
2023/06/10 07:58:14;;;;;;;7.30;2.90;;;21.10;99.90;;;;;;5013526;28;20193;-66
2023/06/10 08:00:40;;;;;;;8.70;3.47;;;21.10;99.90;;;;;;4998098;28;20243;-66
2023/06/10 08:03:07;;;;;;;9.07;3.15;;;21.30;99.90;;;;;;4998383;28;20055;-66
2023/06/10 08:05:32;;;;;;;8.90;3.38;;;21.20;99.90;;;;;;5030699;28;20116;-66
2023/06/10 08:07:58;;;;;;;6.07;3.00;;;21.20;99.90;;;;;;5030002;28;20063;-66
2023/06/10 08:10:24;;;;;;;8.02;2.75;;;21.30;52.70;;;;;;4981573;28;20075;-67
2023/06/10 08:12:49;;;;;;;7.95;3.00;;;21.30;35.30;;;;;;4998499;28;20123;-66
2023/06/10 08:15:15;;;;;;;8.93;2.42;;;21.10;97.60;;;;;;5030883;28;20051;-67
2023/06/10 08:17:41;;;;;;;7.82;2.70;;;21.40;27.20;;;;;;5047541;28;20127;-66
2023/06/10 08:20:07;;;;;;;7.50;2.65;;;21.40;4.30;;;;;;5013483;28;20299;-66
2023/06/10 08:22:33;;;;;;;10.48;3.05;;;21.40;1.50;;;;;;4981263;28;20601;-66
2023/06/10 08:24:59;;;;;;;6.72;2.55;;;21.40;1.00;;;;;;4997197;28;20108;-66
2023/06/10 08:27:26;;;;;;;7.80;2.47;;;21.50;10.20;;;;;;5013384;28;20041;-66
2023/06/10 08:29:51;;;;;;;6.68;2.60;;;21.60;4.00;;;;;;5030776;28;20044;-66
2023/06/10 08:32:17;;;;;;;6.15;2.63;;;21.60;1.00;;;;;;4997255;28;20151;-66
2023/06/10 08:34:43;;;;;;;7.28;2.30;;;21.90;1.00;;;;;;5029995;28;20128;-66
2023/06/10 08:37:09;;;;;;;7.03;2.42;;;22.00;1.00;;;;;;5046705;28;20055;-66
2023/06/10 08:39:34;;;;;;;6.55;2.20;;;21.90;1.00;;;;;;4997105;28;20769;-66
2023/06/10 08:42:17;;;;;;;6.30;2.55;;;22.10;1.00;;;;;;5013745;28;20316;-65
2023/06/10 08:44:43;;;;;;;;;;;22.20;1.00;;;;;;5030840;28;20469;-66
2023/06/10 08:47:14;;;;;;;10.23;2.85;;;22.30;1.00;;;;;;5013504;28;19924;-67
2023/06/10 08:49:44;;;;;;;7.25;2.78;;;22.40;1.00;;;;;;5028082;28;20201;-66
2023/06/10 08:52:16;;;;;;;7.40;2.33;;;22.70;1.00;;;;;;4977843;28;20055;-66
2023/06/10 08:54:49;;;;;;;7.88;2.80;;;22.90;99.90;;;;;;4995142;28;20604;-66
2023/06/10 08:57:17;;;;;;;6.40;3.17;;;22.90;99.90;;;;;;5011471;28;20045;-68
2023/06/10 08:59:43;;;;;;;5.88;2.20;;;23.00;99.90;;;;;;4994687;28;20769;-66
2023/06/10 09:02:09;;;;;;;5.15;2.35;;;23.00;99.90;;;;;;4994452;28;20048;-67
2023/06/10 09:04:36;;;;;;;6.60;2.67;;;23.20;99.90;;;;;;5010842;28;20044;-66
2023/06/10 09:07:03;;;;;;;8.40;2.88;;;23.20;99.90;;;;;;4994336;28;20061;-67
2023/06/10 09:09:32;;;;;;;7.30;3.10;;;23.30;99.90;;;;;;4994462;28;20410;-67
2023/06/10 09:11:58;;;;;;;5.13;2.33;;;23.40;99.90;;;;;;4993571;28;20485;-66
2023/06/10 09:14:24;;;;;;;6.25;2.72;;;23.30;99.90;;;;;;4996286;28;20199;-66
2023/06/10 09:16:50;;;;;;;7.47;2.95;;;23.40;99.90;;;;;;4980694;28;20041;-67
2023/06/10 09:19:17;;;;;;;7.70;2.58;;;23.50;99.90;;;;;;5013300;28;20037;-66
2023/06/10 09:21:42;;;;;;;6.40;2.72;;;23.60;99.90;;;;;;5030147;28;20404;-67
2023/06/10 09:24:09;;;;;;;7.97;3.10;;;23.90;99.90;;;;;;5029332;28;20045;-67
2023/06/10 09:26:34;;;;;;;8.25;2.65;;;23.80;99.90;;;;;;4995879;28;20045;-67
2023/06/10 09:29:05;;;;;;;5.25;2.83;;;23.90;99.90;;;;;;5028977;28;20037;-66
2023/06/10 09:31:31;;;;;;;7.30;3.00;;;24.00;99.90;;;;;;5012927;28;20048;-66
2023/06/10 09:34:11;;;;;;;9.60;3.40;;;24.10;99.90;;;;;;5012802;28;20045;-67
2023/06/10 09:36:38;;;;;;;4.95;2.40;;;24.20;99.90;;;;;;5012688;28;20495;-67
2023/06/10 09:39:04;;;;;;;5.75;2.45;;;24.40;99.90;;;;;;5012488;28;20045;-66
2023/06/10 09:41:40;;;;;;;6.05;2.63;;;24.40;99.90;;;;;;5029301;28;20073;-66
2023/06/10 09:44:15;;;;;;;6.20;2.80;;;24.80;99.90;;;;;;5012792;28;20078;-67
2023/06/10 09:46:42;;;;;;;6.35;2.67;;;24.90;99.90;;;;;;5012859;28;20744;-67
2023/06/10 09:49:08;;;;;;;4.55;2.28;;;25.00;99.90;;;;;;4980437;28;20052;-67
2023/06/10 09:51:33;;;;;;;9.40;3.28;;;25.30;99.90;;;;;;4980635;28;20107;-67
2023/06/10 09:54:05;;;;;;;9.68;2.70;;;25.10;99.90;;;;;;5012286;28;20080;-66
2023/06/10 09:56:37;;;;;;;6.63;2.65;;;25.20;99.90;;;;;;5013284;28;20279;-66
2023/06/10 09:59:06;;;;;;;5.43;2.30;;;25.40;99.90;;;;;;4995886;28;20049;-66
2023/06/10 10:01:33;;;;;;;8.52;2.70;;;25.80;99.90;;;;;;5012960;28;20510;-67
2023/06/10 10:04:00;;;;;;;5.25;2.58;;;26.00;99.90;;;;;;4996552;28;20138;-67
2023/06/10 10:06:26;;;;;;;7.28;2.60;;;26.10;99.90;;;;;;5028716;28;20081;-67
2023/06/10 10:08:51;;;;;;;5.82;2.20;;;26.10;99.90;;;;;;5013222;28;20194;-67
2023/06/10 10:11:19;;;;;;;5.63;2.60;;;26.30;99.90;;;;;;5012796;28;20476;-67
2023/06/10 10:13:47;;;;;;;4.22;1.90;;;26.50;99.90;;;;;;5012628;28;20914;-67
2023/06/10 10:16:38;;;;;;;7.80;2.33;;;26.70;99.90;;;;;;5012451;28;20237;-67
2023/06/10 10:19:11;;;;;;;5.80;2.20;;;26.80;99.90;;;;;;4996597;28;20052;-67
2023/06/10 10:21:47;;;;;;;5.30;1.90;;;26.90;99.90;;;;;;5013119;28;20289;-67
2023/06/10 10:24:21;;;;;;;10.43;2.47;;;27.30;99.90;;;;;;4997132;28;20367;-67
2023/06/10 10:26:49;;;;;;;6.28;2.45;;;27.50;99.90;;;;;;4981139;28;20053;-67
2023/06/10 10:29:27;;;;;;;6.15;2.53;;;27.40;99.90;;;;;;5030113;28;20045;-66
2023/06/10 10:31:56;;;;;;;4.32;2.30;;;27.30;99.90;;;;;;4998196;28;20144;-67
2023/06/10 10:34:31;;;;;;;4.55;2.20;;;27.50;99.90;;;;;;4998383;28;20542;-67
2023/06/10 10:36:57;;;;;;;5.95;2.28;;;27.60;99.90;;;;;;4998489;28;20609;-67
2023/06/10 10:39:24;;;;;;;5.40;2.22;;;27.60;99.90;;;;;;4981811;28;20111;-67
2023/06/10 10:41:50;;;;;;;7.13;2.25;;;27.60;99.90;;;;;;4998381;28;20049;-67
2023/06/10 10:44:17;;;;;;;6.70;2.15;;;27.70;99.90;;;;;;4981665;28;20037;-66
2023/06/10 10:46:44;;;;;;;5.35;1.95;;;27.90;99.90;;;;;;5013208;28;20044;-66
2023/06/10 10:49:13;;;;;;;5.68;2.05;;;28.00;99.90;;;;;;4997052;28;20045;-65
2023/06/10 10:51:55;;;;;;;6.45;2.40;;;28.30;99.90;;;;;;5016095;28;20449;-65
2023/06/10 10:54:32;;;;;;;4.93;2.00;;;28.40;99.90;;;;;;5032131;28;20049;-65
2023/06/10 10:57:15;;;;;;;4.50;2.20;;;28.50;99.90;;;;;;5015172;28;20083;-65
2023/06/10 11:00:04;;;;;;;8.48;2.03;;;28.50;99.90;;;;;;5015617;28;20037;-65
2023/06/10 11:02:38;;;;;;;6.97;2.00;;;28.60;99.90;;;;;;4996606;28;20053;-66
2023/06/10 11:05:05;;;;;;;4.60;2.03;;;28.40;99.90;;;;;;5015678;28;20740;-64
2023/06/10 11:07:32;;;;;;;5.45;2.50;;;28.60;99.90;;;;;;5015295;28;20067;-65
2023/06/10 11:10:05;;;;;;;5.78;1.90;;;28.60;99.90;;;;;;5031183;28;20072;-66
2023/06/10 11:12:51;;;;;;;3.78;1.92;;;28.40;99.90;;;;;;5031783;28;20143;-66
2023/06/10 11:15:20;;;;;;;5.40;2.05;;;28.80;99.90;;;;;;5015082;28;20051;-66
2023/06/10 11:18:12;;;;;;;4.80;1.90;;;28.90;99.90;;;;;;4999787;28;20053;-67
2023/06/10 11:20:50;;;;;;;4.55;1.90;;;28.90;99.90;;;;;;4983080;28;20077;-66
2023/06/10 11:23:28;;;;;;;5.45;2.08;;;28.70;99.90;;;;;;5014357;28;20064;-67
2023/06/10 11:26:16;;;;;;;7.43;2.15;;;28.30;99.90;;;;;;5027967;28;20118;-67
2023/06/10 11:28:45;;;;;;;3.72;1.40;;;28.40;99.90;;;;;;4998510;28;20606;-67
2023/06/10 11:31:20;;;;;;;4.70;1.85;;;28.40;99.90;;;;;;4995871;28;20310;-67
2023/06/10 11:33:48;;;;;;;6.00;2.10;;;28.60;99.90;;;;;;4994416;28;20038;-67
2023/06/10 11:36:14;;;;;;;6.97;1.85;;;28.90;99.90;;;;;;5028717;28;20566;-68
2023/06/10 11:38:42;;;;;;;6.32;2.13;;;28.80;99.90;;;;;;4980211;28;20037;-67
2023/06/10 11:41:07;;;;;;;4.72;2.05;;;28.80;99.90;;;;;;4980518;28;20727;-67
2023/06/10 11:43:34;;;;;;;6.38;1.90;;;28.90;99.90;;;;;;4996520;28;20333;-67
2023/06/10 11:46:00;;;;;;;5.30;2.17;;;28.80;99.90;;;;;;5012976;28;20044;-68
2023/06/10 11:48:28;;;;;;;6.45;2.00;;;28.90;99.90;;;;;;4996756;28;21139;-67
2023/06/10 11:50:54;;;;;;;7.45;2.10;;;29.10;99.90;;;;;;4992128;28;20053;-67
2023/06/10 11:53:19;;;;;;;3.97;2.10;;;29.20;99.90;;;;;;4997161;28;20045;-68
2023/06/10 11:55:47;;;;;;;5.55;2.35;;;29.50;99.90;;;;;;4980786;28;20139;-67
2023/06/10 11:58:14;;;;;;;5.93;2.00;;;29.50;99.90;;;;;;4981053;28;20834;-67
2023/06/10 12:00:47;;;;;;;4.50;1.55;;;29.40;99.90;;;;;;4995801;28;20136;-67
2023/06/10 12:03:13;;;;;;;5.50;1.98;;;29.20;99.90;;;;;;4995120;28;20223;-67
2023/06/10 12:05:39;;;;;;;4.95;1.63;;;29.30;99.90;;;;;;4996768;28;20069;-67
2023/06/10 12:08:11;;;;;;;4.88;2.38;;;29.30;99.90;;;;;;5012030;28;20124;-67
2023/06/10 12:10:41;;;;;;;3.70;1.75;;;29.10;99.90;;;;;;5012681;28;20064;-67
2023/06/10 12:13:09;;;;;;;5.43;1.65;;;29.20;99.90;;;;;;4996966;28;20505;-67
2023/06/10 12:15:35;;;;;;;5.95;2.08;;;29.30;99.90;;;;;;4975154;28;20041;-67
2023/06/10 12:18:02;;;;;;;3.58;2.00;;;29.20;99.90;;;;;;4996819;28;20490;-67
2023/06/10 12:20:36;;;;;;;5.00;1.77;;;29.40;99.90;;;;;;5030159;28;20455;-68
2023/06/10 12:23:10;;;;;;;6.32;1.73;;;29.40;99.90;;;;;;5027786;28;20235;-68
2023/06/10 12:25:39;;;;;;;3.50;1.60;;;29.50;99.90;;;;;;4995666;28;20046;-68
2023/06/10 12:28:06;;;;;;;3.70;1.88;;;29.20;99.90;;;;;;4995190;28;20261;-68
2023/06/10 12:30:32;;;;;;;4.78;1.58;;;29.40;99.90;;;;;;4995105;28;20084;-67
2023/06/10 12:32:58;;;;;;;4.05;1.50;;;29.50;99.90;;;;;;5031308;28;20755;-67
2023/06/10 12:35:26;;;;;;;6.07;1.70;;;29.50;99.90;;;;;;4998896;28;20033;-68
2023/06/10 12:38:04;;;;;;;7.63;1.70;;;29.80;99.90;;;;;;5017450;28;20737;-67
2023/06/10 12:40:36;;;;;;;3.58;1.42;;;29.70;99.90;;;;;;5006442;28;20320;-67
2023/06/10 12:43:02;;;;;;;4.22;1.77;;;29.80;99.90;;;;;;4986874;28;20028;-68
2023/06/10 12:45:35;;;;;;;3.28;1.70;;;29.70;99.90;;;;;;4998944;28;20555;-66
2023/06/10 12:48:12;;;;;;;6.03;1.45;;;29.80;99.90;;;;;;4965041;28;20479;-67